Connexion S'enregistrer

Connexion à votre compte

Identifiant
Mot de passe
Maintenir la connexion active sur ce site

Créer un compte

Pour valider ce formulaire, vous devez remplir tous les champs.
Nom
Identifiant
Mot de passe
Répétez le mot de passe
Adresse e-mail
Répétez l'adresse e-mail

Veuillez saisir l'adresse e-mail associée à votre compte d'utilisateur. Votre identifiant vous sera envoyé à cette adresse.

Nous contacter

 Téléphone : +33 (0)4 79 54 41 81

Coordonnées détaillées et accès : cliquez ici

 
LFLB °C
    Ferienhaus Ostsee
[source: ADDS]
METAR
LFLB 242000Z AUTO 00000KT 9999 SCT076 OVC090 10/06 Q1017 NOSIG =
TAF
TAF LFLB 241700Z 2418/2518 16003KT 9999 SCT060 BKN075 PROB30 TEMPO 2418/2422 -RA SCT030 OVC050 BECMG 2421/2422 RA BKN025 OVC050 BECMG 2503/2506 5000 RA SCT015 OVC030 PROB40 TEMPO 2503/2506 21015KT BECMG 2512/2514 34008KT SCT040 =
SR / SS: 06:48 / 15:57 UTC (Lever/Coucher du soleil le 2017-11-24)
JSN Boot template designed by JoomlaShine.com